sensor_id;sensor_type;location;lat;lon;timestamp;P1;durP1;ratioP1;P2;durP2;ratioP2
14021;SDS011;7086;48.116;11.580;2024-01-30T00:01:15;12.02;;;6.75;;
14021;SDS011;7086;48.116;11.580;2024-01-30T00:03:43;7.88;;;7.05;;
14021;SDS011;7086;48.116;11.580;2024-01-30T00:06:10;10.70;;;7.10;;
14021;SDS011;7086;48.116;11.580;2024-01-30T00:08:40;8.68;;;7.40;;
14021;SDS011;7086;48.116;11.580;2024-01-30T00:11:07;9.93;;;8.52;;
14021;SDS011;7086;48.116;11.580;2024-01-30T00:13:35;9.88;;;7.50;;
14021;SDS011;7086;48.116;11.580;2024-01-30T00:16:03;12.90;;;9.18;;
14021;SDS011;7086;48.116;11.580;2024-01-30T00:18:32;15.90;;;8.93;;
14021;SDS011;7086;48.116;11.580;2024-01-30T00:20:59;11.35;;;7.50;;
14021;SDS011;7086;48.116;11.580;2024-01-30T00:23:28;6.97;;;6.28;;
14021;SDS011;7086;48.116;11.580;2024-01-30T00:25:57;6.75;;;6.15;;
14021;SDS011;7086;48.116;11.580;2024-01-30T00:28:25;6.38;;;5.75;;
14021;SDS011;7086;48.116;11.580;2024-01-30T00:30:53;7.00;;;6.30;;
14021;SDS011;7086;48.116;11.580;2024-01-30T00:33:21;6.68;;;5.97;;
14021;SDS011;7086;48.116;11.580;2024-01-30T00:35:49;6.32;;;5.72;;
14021;SDS011;7086;48.116;11.580;2024-01-30T00:38:16;6.47;;;5.90;;
14021;SDS011;7086;48.116;11.580;2024-01-30T00:40:44;6.72;;;6.05;;
14021;SDS011;7086;48.116;11.580;2024-01-30T00:43:13;8.00;;;6.38;;
14021;SDS011;7086;48.116;11.580;2024-01-30T00:45:43;9.02;;;5.82;;
14021;SDS011;7086;48.116;11.580;2024-01-30T00:48:10;5.68;;;5.18;;
14021;SDS011;7086;48.116;11.580;2024-01-30T00:50:38;5.97;;;5.45;;
14021;SDS011;7086;48.116;11.580;2024-01-30T00:53:05;5.57;;;5.07;;
14021;SDS011;7086;48.116;11.580;2024-01-30T00:55:33;5.63;;;5.05;;
14021;SDS011;7086;48.116;11.580;2024-01-30T00:58:01;8.00;;;5.20;;
14021;SDS011;7086;48.116;11.580;2024-01-30T01:00:30;7.03;;;5.25;;
14021;SDS011;7086;48.116;11.580;2024-01-30T01:02:59;6.10;;;5.53;;
14021;SDS011;7086;48.116;11.580;2024-01-30T01:05:27;4.50;;;4.10;;
14021;SDS011;7086;48.116;11.580;2024-01-30T01:07:54;5.20;;;4.70;;
14021;SDS011;7086;48.116;11.580;2024-01-30T01:10:22;4.85;;;4.45;;
14021;SDS011;7086;48.116;11.580;2024-01-30T01:12:50;5.10;;;4.60;;
14021;SDS011;7086;48.116;11.580;2024-01-30T01:15:17;7.20;;;5.38;;
14021;SDS011;7086;48.116;11.580;2024-01-30T01:17:46;5.15;;;4.80;;
14021;SDS011;7086;48.116;11.580;2024-01-30T01:20:14;7.13;;;5.40;;
14021;SDS011;7086;48.116;11.580;2024-01-30T01:22:42;5.53;;;5.03;;
14021;SDS011;7086;48.116;11.580;2024-01-30T01:25:09;6.10;;;5.20;;
14021;SDS011;7086;48.116;11.580;2024-01-30T01:27:37;6.57;;;5.50;;
14021;SDS011;7086;48.116;11.580;2024-01-30T01:30:07;6.35;;;5.22;;
14021;SDS011;7086;48.116;11.580;2024-01-30T01:32:39;6.50;;;5.07;;
14021;SDS011;7086;48.116;11.580;2024-01-30T01:35:15;5.45;;;4.90;;
14021;SDS011;7086;48.116;11.580;2024-01-30T01:37:43;5.15;;;4.65;;
14021;SDS011;7086;48.116;11.580;2024-01-30T01:40:11;5.05;;;4.15;;
14021;SDS011;7086;48.116;11.580;2024-01-30T01:42:39;4.90;;;4.50;;
14021;SDS011;7086;48.116;11.580;2024-01-30T01:45:06;5.45;;;4.95;;
14021;SDS011;7086;48.116;11.580;2024-01-30T01:47:35;5.05;;;4.55;;
14021;SDS011;7086;48.116;11.580;2024-01-30T01:50:03;5.43;;;4.93;;
14021;SDS011;7086;48.116;11.580;2024-01-30T01:52:33;6.43;;;4.75;;
14021;SDS011;7086;48.116;11.580;2024-01-30T01:55:01;5.60;;;5.10;;
14021;SDS011;7086;48.116;11.580;2024-01-30T01:57:29;5.18;;;4.75;;
14021;SDS011;7086;48.116;11.580;2024-01-30T01:59:57;4.85;;;4.35;;
14021;SDS011;7086;48.116;11.580;2024-01-30T02:02:26;5.05;;;4.65;;
14021;SDS011;7086;48.116;11.580;2024-01-30T02:04:56;6.95;;;4.15;;
14021;SDS011;7086;48.116;11.580;2024-01-30T02:07:25;7.65;;;5.03;;
14021;SDS011;7086;48.116;11.580;2024-01-30T02:09:54;7.68;;;4.65;;
14021;SDS011;7086;48.116;11.580;2024-01-30T02:12:22;4.20;;;3.80;;
14021;SDS011;7086;48.116;11.580;2024-01-30T02:14:50;4.70;;;4.32;;
14021;SDS011;7086;48.116;11.580;2024-01-30T02:17:19;4.32;;;3.92;;
14021;SDS011;7086;48.116;11.580;2024-01-30T02:19:48;6.10;;;4.13;;
14021;SDS011;7086;48.116;11.580;2024-01-30T02:22:17;4.35;;;3.78;;
14021;SDS011;7086;48.116;11.580;2024-01-30T02:24:47;4.40;;;4.00;;
14021;SDS011;7086;48.116;11.580;2024-01-30T02:27:15;5.25;;;4.82;;
14021;SDS011;7086;48.116;11.580;2024-01-30T02:29:42;4.63;;;4.22;;
14021;SDS011;7086;48.116;11.580;2024-01-30T02:32:10;4.65;;;4.25;;
14021;SDS011;7086;48.116;11.580;2024-01-30T02:34:38;5.60;;;4.30;;
14021;SDS011;7086;48.116;11.580;2024-01-30T02:37:05;7.65;;;4.93;;
14021;SDS011;7086;48.116;11.580;2024-01-30T02:39:34;4.53;;;4.13;;
14021;SDS011;7086;48.116;11.580;2024-01-30T02:42:02;5.03;;;4.63;;
14021;SDS011;7086;48.116;11.580;2024-01-30T02:44:30;5.22;;;4.70;;
14021;SDS011;7086;48.116;11.580;2024-01-30T02:46:58;5.93;;;4.38;;
14021;SDS011;7086;48.116;11.580;2024-01-30T02:49:25;6.00;;;4.85;;
14021;SDS011;7086;48.116;11.580;2024-01-30T02:51:53;5.80;;;5.22;;
14021;SDS011;7086;48.116;11.580;2024-01-30T02:54:22;4.97;;;4.57;;
14021;SDS011;7086;48.116;11.580;2024-01-30T02:56:50;5.82;;;5.28;;
14021;SDS011;7086;48.116;11.580;2024-01-30T02:59:18;6.38;;;4.43;;
14021;SDS011;7086;48.116;11.580;2024-01-30T03:01:46;4.68;;;4.28;;
14021;SDS011;7086;48.116;11.580;2024-01-30T03:04:14;6.35;;;5.05;;
14021;SDS011;7086;48.116;11.580;2024-01-30T03:06:44;5.07;;;4.68;;
14021;SDS011;7086;48.116;11.580;2024-01-30T03:09:13;5.40;;;4.97;;
14021;SDS011;7086;48.116;11.580;2024-01-30T03:11:43;4.82;;;4.43;;
14021;SDS011;7086;48.116;11.580;2024-01-30T03:14:12;4.90;;;4.10;;
14021;SDS011;7086;48.116;11.580;2024-01-30T03:16:40;4.65;;;4.25;;
14021;SDS011;7086;48.116;11.580;2024-01-30T03:19:07;5.60;;;5.07;;
14021;SDS011;7086;48.116;11.580;2024-01-30T03:21:35;5.30;;;4.50;;
14021;SDS011;7086;48.116;11.580;2024-01-30T03:24:03;4.13;;;3.85;;
14021;SDS011;7086;48.116;11.580;2024-01-30T03:26:31;4.88;;;4.35;;
14021;SDS011;7086;48.116;11.580;2024-01-30T03:28:59;4.88;;;4.47;;
14021;SDS011;7086;48.116;11.580;2024-01-30T03:31:28;10.40;;;5.63;;
14021;SDS011;7086;48.116;11.580;2024-01-30T03:33:55;5.10;;;4.68;;
14021;SDS011;7086;48.116;11.580;2024-01-30T03:36:23;4.13;;;3.75;;
14021;SDS011;7086;48.116;11.580;2024-01-30T03:38:50;6.88;;;4.18;;
14021;SDS011;7086;48.116;11.580;2024-01-30T03:41:18;3.92;;;3.55;;
14021;SDS011;7086;48.116;11.580;2024-01-30T03:43:46;6.10;;;3.90;;
14021;SDS011;7086;48.116;11.580;2024-01-30T03:46:14;4.30;;;3.72;;
14021;SDS011;7086;48.116;11.580;2024-01-30T03:48:43;4.40;;;4.00;;
14021;SDS011;7086;48.116;11.580;2024-01-30T03:51:12;6.63;;;4.03;;
14021;SDS011;7086;48.116;11.580;2024-01-30T03:53:41;4.88;;;3.92;;
14021;SDS011;7086;48.116;11.580;2024-01-30T03:56:09;5.20;;;4.43;;
14021;SDS011;7086;48.116;11.580;2024-01-30T03:58:38;4.60;;;4.15;;
14021;SDS011;7086;48.116;11.580;2024-01-30T04:01:05;6.35;;;4.28;;
14021;SDS011;7086;48.116;11.580;2024-01-30T04:03:33;4.93;;;4.43;;
14021;SDS011;7086;48.116;11.580;2024-01-30T04:06:02;4.03;;;3.63;;
14021;SDS011;7086;48.116;11.580;2024-01-30T04:08:31;5.78;;;4.40;;
14021;SDS011;7086;48.116;11.580;2024-01-30T04:10:58;3.95;;;3.65;;
14021;SDS011;7086;48.116;11.580;2024-01-30T04:13:30;4.57;;;4.18;;
14021;SDS011;7086;48.116;11.580;2024-01-30T04:15:58;4.55;;;4.15;;
14021;SDS011;7086;48.116;11.580;2024-01-30T04:18:27;7.93;;;4.25;;
14021;SDS011;7086;48.116;11.580;2024-01-30T04:20:55;4.30;;;3.40;;
14021;SDS011;7086;48.116;11.580;2024-01-30T04:23:25;4.70;;;4.30;;
14021;SDS011;7086;48.116;11.580;2024-01-30T04:25:53;5.28;;;4.85;;
14021;SDS011;7086;48.116;11.580;2024-01-30T04:28:20;4.95;;;4.15;;
14021;SDS011;7086;48.116;11.580;2024-01-30T04:30:48;6.57;;;4.20;;
14021;SDS011;7086;48.116;11.580;2024-01-30T04:33:16;4.07;;;3.78;;
14021;SDS011;7086;48.116;11.580;2024-01-30T04:35:44;4.50;;;4.10;;
14021;SDS011;7086;48.116;11.580;2024-01-30T04:38:12;3.88;;;3.58;;
14021;SDS011;7086;48.116;11.580;2024-01-30T04:40:41;5.75;;;4.15;;
14021;SDS011;7086;48.116;11.580;2024-01-30T04:43:11;7.57;;;4.28;;
14021;SDS011;7086;48.116;11.580;2024-01-30T04:45:39;4.65;;;4.25;;
14021;SDS011;7086;48.116;11.580;2024-01-30T04:48:10;4.82;;;4.43;;
14021;SDS011;7086;48.116;11.580;2024-01-30T04:50:37;6.07;;;4.95;;
14021;SDS011;7086;48.116;11.580;2024-01-30T04:53:08;7.18;;;4.05;;
14021;SDS011;7086;48.116;11.580;2024-01-30T04:55:36;7.15;;;4.05;;
14021;SDS011;7086;48.116;11.580;2024-01-30T04:58:08;5.22;;;3.70;;
14021;SDS011;7086;48.116;11.580;2024-01-30T05:00:36;6.88;;;4.78;;
14021;SDS011;7086;48.116;11.580;2024-01-30T05:03:07;5.38;;;4.90;;
14021;SDS011;7086;48.116;11.580;2024-01-30T05:05:35;4.57;;;3.35;;
14021;SDS011;7086;48.116;11.580;2024-01-30T05:08:03;4.82;;;4.05;;
14021;SDS011;7086;48.116;11.580;2024-01-30T05:10:32;4.07;;;3.67;;
14021;SDS011;7086;48.116;11.580;2024-01-30T05:13:02;4.40;;;3.72;;
14021;SDS011;7086;48.116;11.580;2024-01-30T05:15:32;4.90;;;4.45;;
14021;SDS011;7086;48.116;11.580;2024-01-30T05:18:03;5.03;;;4.25;;
14021;SDS011;7086;48.116;11.580;2024-01-30T05:20:34;5.25;;;4.75;;
14021;SDS011;7086;48.116;11.580;2024-01-30T05:23:04;7.82;;;5.30;;
14021;SDS011;7086;48.116;11.580;2024-01-30T05:25:33;8.52;;;4.43;;
14021;SDS011;7086;48.116;11.580;2024-01-30T05:28:21;5.22;;;4.00;;
14021;SDS011;7086;48.116;11.580;2024-01-30T05:31:12;4.72;;;4.10;;
14021;SDS011;7086;48.116;11.580;2024-01-30T05:33:40;5.13;;;4.68;;
14021;SDS011;7086;48.116;11.580;2024-01-30T05:36:11;5.68;;;4.72;;
14021;SDS011;7086;48.116;11.580;2024-01-30T05:38:43;5.43;;;4.30;;
14021;SDS011;7086;48.116;11.580;2024-01-30T05:41:12;7.60;;;4.50;;
14021;SDS011;7086;48.116;11.580;2024-01-30T05:43:40;7.68;;;4.45;;
14021;SDS011;7086;48.116;11.580;2024-01-30T05:46:08;4.50;;;4.07;;
14021;SDS011;7086;48.116;11.580;2024-01-30T05:48:37;7.88;;;4.68;;
14021;SDS011;7086;48.116;11.580;2024-01-30T05:51:06;4.43;;;4.03;;
14021;SDS011;7086;48.116;11.580;2024-01-30T05:53:39;5.90;;;4.60;;
14021;SDS011;7086;48.116;11.580;2024-01-30T06:04:31;5.32;;;4.22;;
14021;SDS011;7086;48.116;11.580;2024-01-30T06:07:04;5.95;;;4.45;;
14021;SDS011;7086;48.116;11.580;2024-01-30T06:09:33;9.00;;;5.45;;
14021;SDS011;7086;48.116;11.580;2024-01-30T06:12:06;6.80;;;4.68;;
14021;SDS011;7086;48.116;11.580;2024-01-30T06:14:45;4.47;;;4.07;;
14021;SDS011;7086;48.116;11.580;2024-01-30T06:17:13;5.60;;;4.72;;
14021;SDS011;7086;48.116;11.580;2024-01-30T06:19:47;6.10;;;4.13;;
14021;SDS011;7086;48.116;11.580;2024-01-30T06:22:16;32.03;;;20.70;;
14021;SDS011;7086;48.116;11.580;2024-01-30T06:24:45;6.63;;;4.72;;
14021;SDS011;7086;48.116;11.580;2024-01-30T06:27:14;6.57;;;4.50;;
14021;SDS011;7086;48.116;11.580;2024-01-30T06:29:46;5.38;;;4.00;;
14021;SDS011;7086;48.116;11.580;2024-01-30T06:32:14;10.75;;;4.88;;
14021;SDS011;7086;48.116;11.580;2024-01-30T06:34:47;4.15;;;3.75;;
14021;SDS011;7086;48.116;11.580;2024-01-30T06:37:17;4.30;;;3.90;;
14021;SDS011;7086;48.116;11.580;2024-01-30T06:39:57;3.80;;;3.50;;
14021;SDS011;7086;48.116;11.580;2024-01-30T06:42:27;9.25;;;4.30;;
14021;SDS011;7086;48.116;11.580;2024-01-30T06:45:10;5.13;;;4.18;;
14021;SDS011;7086;48.116;11.580;2024-01-30T06:47:54;7.10;;;4.20;;
14021;SDS011;7086;48.116;11.580;2024-01-30T06:50:52;9.32;;;3.85;;
14021;SDS011;7086;48.116;11.580;2024-01-30T06:53:23;11.30;;;5.60;;
14021;SDS011;7086;48.116;11.580;2024-01-30T06:56:00;10.10;;;6.43;;
14021;SDS011;7086;48.116;11.580;2024-01-30T06:58:33;6.30;;;5.53;;
14021;SDS011;7086;48.116;11.580;2024-01-30T07:01:02;5.93;;;5.28;;
14021;SDS011;7086;48.116;11.580;2024-01-30T07:03:30;6.70;;;5.95;;
14021;SDS011;7086;48.116;11.580;2024-01-30T07:06:02;7.55;;;6.38;;
14021;SDS011;7086;48.116;11.580;2024-01-30T07:08:31;9.18;;;5.00;;
14021;SDS011;7086;48.116;11.580;2024-01-30T07:10:59;8.45;;;5.72;;
14021;SDS011;7086;48.116;11.580;2024-01-30T07:13:27;9.27;;;4.97;;
14021;SDS011;7086;48.116;11.580;2024-01-30T07:15:57;9.10;;;5.38;;
14021;SDS011;7086;48.116;11.580;2024-01-30T07:18:28;10.02;;;4.78;;
14021;SDS011;7086;48.116;11.580;2024-01-30T07:20:56;11.77;;;4.30;;
14021;SDS011;7086;48.116;11.580;2024-01-30T07:23:29;8.10;;;3.92;;
14021;SDS011;7086;48.116;11.580;2024-01-30T07:26:04;10.55;;;4.45;;
14021;SDS011;7086;48.116;11.580;2024-01-30T07:28:33;10.98;;;4.53;;
14021;SDS011;7086;48.116;11.580;2024-01-30T07:31:02;6.30;;;4.10;;
14021;SDS011;7086;48.116;11.580;2024-01-30T07:33:30;7.13;;;3.50;;
14021;SDS011;7086;48.116;11.580;2024-01-30T07:36:00;6.03;;;3.92;;
14021;SDS011;7086;48.116;11.580;2024-01-30T07:38:33;6.28;;;4.15;;
14021;SDS011;7086;48.116;11.580;2024-01-30T07:41:08;6.40;;;4.75;;
14021;SDS011;7086;48.116;11.580;2024-01-30T07:43:38;11.65;;;3.33;;
14021;SDS011;7086;48.116;11.580;2024-01-30T07:46:07;10.98;;;3.55;;
14021;SDS011;7086;48.116;11.580;2024-01-30T07:48:42;9.43;;;3.78;;
14021;SDS011;7086;48.116;11.580;2024-01-30T07:51:26;8.40;;;4.20;;
14021;SDS011;7086;48.116;11.580;2024-01-30T07:57:24;13.23;;;6.00;;
14021;SDS011;7086;48.116;11.580;2024-01-30T08:00:00;4.50;;;3.55;;
14021;SDS011;7086;48.116;11.580;2024-01-30T08:02:43;9.13;;;4.38;;
14021;SDS011;7086;48.116;11.580;2024-01-30T08:08:50;7.13;;;4.22;;
14021;SDS011;7086;48.116;11.580;2024-01-30T08:18:12;7.70;;;3.92;;
14021;SDS011;7086;48.116;11.580;2024-01-30T08:21:16;6.75;;;3.40;;
14021;SDS011;7086;48.116;11.580;2024-01-30T08:26:41;9.60;;;4.82;;
14021;SDS011;7086;48.116;11.580;2024-01-30T08:29:31;5.75;;;3.03;;
14021;SDS011;7086;48.116;11.580;2024-01-30T08:47:30;6.85;;;2.45;;
14021;SDS011;7086;48.116;11.580;2024-01-30T08:50:22;5.93;;;2.25;;
14021;SDS011;7086;48.116;11.580;2024-01-30T08:58:14;3.78;;;1.80;;
14021;SDS011;7086;48.116;11.580;2024-01-30T09:01:00;2.38;;;2.17;;
14021;SDS011;7086;48.116;11.580;2024-01-30T09:03:41;9.68;;;1.70;;
14021;SDS011;7086;48.116;11.580;2024-01-30T09:06:24;18.85;;;15.43;;
14021;SDS011;7086;48.116;11.580;2024-01-30T09:09:08;14.30;;;12.80;;
14021;SDS011;7086;48.116;11.580;2024-01-30T09:11:40;4.47;;;3.90;;
14021;SDS011;7086;48.116;11.580;2024-01-30T09:14:25;2.05;;;1.85;;
14021;SDS011;7086;48.116;11.580;2024-01-30T09:17:11;1.80;;;1.70;;
14021;SDS011;7086;48.116;11.580;2024-01-30T09:19:53;2.83;;;1.50;;
14021;SDS011;7086;48.116;11.580;2024-01-30T09:22:24;1.88;;;1.50;;
14021;SDS011;7086;48.116;11.580;2024-01-30T09:24:55;11.50;;;2.60;;
14021;SDS011;7086;48.116;11.580;2024-01-30T09:27:37;4.25;;;2.17;;
14021;SDS011;7086;48.116;11.580;2024-01-30T09:30:19;5.13;;;2.22;;
14021;SDS011;7086;48.116;11.580;2024-01-30T09:33:06;1.58;;;1.48;;
14021;SDS011;7086;48.116;11.580;2024-01-30T09:35:36;1.75;;;1.38;;
14021;SDS011;7086;48.116;11.580;2024-01-30T09:38:06;16.15;;;2.67;;
14021;SDS011;7086;48.116;11.580;2024-01-30T09:40:40;11.45;;;3.28;;
14021;SDS011;7086;48.116;11.580;2024-01-30T09:43:10;10.27;;;2.20;;
14021;SDS011;7086;48.116;11.580;2024-01-30T09:46:00;6.10;;;2.25;;
14021;SDS011;7086;48.116;11.580;2024-01-30T09:48:49;4.50;;;2.08;;
14021;SDS011;7086;48.116;11.580;2024-01-30T09:51:32;4.85;;;2.08;;
14021;SDS011;7086;48.116;11.580;2024-01-30T09:54:03;1.58;;;1.48;;
14021;SDS011;7086;48.116;11.580;2024-01-30T09:56:49;2.97;;;1.80;;
14021;SDS011;7086;48.116;11.580;2024-01-30T09:59:33;3.13;;;1.65;;
14021;SDS011;7086;48.116;11.580;2024-01-30T10:02:24;10.70;;;2.15;;
14021;SDS011;7086;48.116;11.580;2024-01-30T10:08:20;10.05;;;3.00;;
14021;SDS011;7086;48.116;11.580;2024-01-30T10:11:05;18.85;;;5.00;;
14021;SDS011;7086;48.116;11.580;2024-01-30T10:13:53;14.80;;;4.50;;
14021;SDS011;7086;48.116;11.580;2024-01-30T10:16:37;10.70;;;6.57;;
14021;SDS011;7086;48.116;11.580;2024-01-30T10:19:07;5.95;;;3.25;;
14021;SDS011;7086;48.116;11.580;2024-01-30T10:21:56;4.28;;;2.47;;
14021;SDS011;7086;48.116;11.580;2024-01-30T10:24:40;2.10;;;1.92;;
14021;SDS011;7086;48.116;11.580;2024-01-30T10:27:24;8.45;;;1.67;;
14021;SDS011;7086;48.116;11.580;2024-01-30T10:29:54;2.22;;;1.30;;
14021;SDS011;7086;48.116;11.580;2024-01-30T10:32:24;2.35;;;1.50;;
14021;SDS011;7086;48.116;11.580;2024-01-30T10:35:07;7.18;;;1.75;;
14021;SDS011;7086;48.116;11.580;2024-01-30T10:37:43;1.70;;;1.60;;
14021;SDS011;7086;48.116;11.580;2024-01-30T10:40:14;2.03;;;1.23;;
14021;SDS011;7086;48.116;11.580;2024-01-30T10:42:44;7.43;;;1.60;;
14021;SDS011;7086;48.116;11.580;2024-01-30T10:45:26;3.90;;;1.30;;
14021;SDS011;7086;48.116;11.580;2024-01-30T10:48:02;1.08;;;1.00;;
14021;SDS011;7086;48.116;11.580;2024-01-30T10:50:52;4.05;;;1.27;;
14021;SDS011;7086;48.116;11.580;2024-01-30T10:56:38;8.35;;;2.35;;
14021;SDS011;7086;48.116;11.580;2024-01-30T10:59:10;6.20;;;1.50;;
14021;SDS011;7086;48.116;11.580;2024-01-30T11:01:44;1.38;;;1.27;;
14021;SDS011;7086;48.116;11.580;2024-01-30T11:04:24;3.25;;;1.70;;
14021;SDS011;7086;48.116;11.580;2024-01-30T11:07:15;1.50;;;1.38;;
14021;SDS011;7086;48.116;11.580;2024-01-30T11:09:49;2.70;;;1.35;;
14021;SDS011;7086;48.116;11.580;2024-01-30T11:12:46;3.75;;;1.40;;
14021;SDS011;7086;48.116;11.580;2024-01-30T11:15:17;4.03;;;1.70;;
14021;SDS011;7086;48.116;11.580;2024-01-30T11:18:09;4.45;;;2.03;;
14021;SDS011;7086;48.116;11.580;2024-01-30T11:20:36;1.73;;;1.40;;
14021;SDS011;7086;48.116;11.580;2024-01-30T11:23:11;4.22;;;1.85;;
14021;SDS011;7086;48.116;11.580;2024-01-30T11:25:43;8.43;;;4.07;;
14021;SDS011;7086;48.116;11.580;2024-01-30T11:28:16;2.60;;;2.10;;
14021;SDS011;7086;48.116;11.580;2024-01-30T11:30:46;4.22;;;1.92;;
14021;SDS011;7086;48.116;11.580;2024-01-30T11:33:29;2.30;;;2.13;;
14021;SDS011;7086;48.116;11.580;2024-01-30T11:36:04;9.98;;;3.60;;
14021;SDS011;7086;48.116;11.580;2024-01-30T11:38:46;2.33;;;1.70;;
14021;SDS011;7086;48.116;11.580;2024-01-30T11:41:27;8.38;;;1.70;;
14021;SDS011;7086;48.116;11.580;2024-01-30T11:47:31;7.50;;;5.22;;
14021;SDS011;7086;48.116;11.580;2024-01-30T11:50:19;2.08;;;1.67;;
14021;SDS011;7086;48.116;11.580;2024-01-30T11:53:03;1.48;;;1.38;;
14021;SDS011;7086;48.116;11.580;2024-01-30T11:55:49;2.97;;;1.42;;
14021;SDS011;7086;48.116;11.580;2024-01-30T11:58:32;1.92;;;1.60;;
14021;SDS011;7086;48.116;11.580;2024-01-30T12:11:00;1.17;;;1.08;;
14021;SDS011;7086;48.116;11.580;2024-01-30T12:13:42;1.85;;;1.20;;
14021;SDS011;7086;48.116;11.580;2024-01-30T12:16:26;1.35;;;1.25;;
14021;SDS011;7086;48.116;11.580;2024-01-30T12:19:08;3.50;;;1.30;;
14021;SDS011;7086;48.116;11.580;2024-01-30T12:21:53;2.05;;;1.20;;
14021;SDS011;7086;48.116;11.580;2024-01-30T12:24:30;1.25;;;1.10;;
14021;SDS011;7086;48.116;11.580;2024-01-30T12:27:08;1.38;;;1.15;;
14021;SDS011;7086;48.116;11.580;2024-01-30T12:29:55;1.27;;;1.00;;
14021;SDS011;7086;48.116;11.580;2024-01-30T12:32:36;3.60;;;1.23;;
14021;SDS011;7086;48.116;11.580;2024-01-30T12:35:14;1.85;;;1.23;;
14021;SDS011;7086;48.116;11.580;2024-01-30T12:37:58;2.72;;;1.20;;
14021;SDS011;7086;48.116;11.580;2024-01-30T12:40:41;1.33;;;1.10;;
14021;SDS011;7086;48.116;11.580;2024-01-30T12:43:16;1.10;;;1.02;;
14021;SDS011;7086;48.116;11.580;2024-01-30T12:45:59;1.20;;;1.10;;
14021;SDS011;7086;48.116;11.580;2024-01-30T12:48:41;1.30;;;1.20;;
14021;SDS011;7086;48.116;11.580;2024-01-30T12:51:22;1.40;;;1.30;;
14021;SDS011;7086;48.116;11.580;2024-01-30T12:54:04;3.90;;;1.70;;
14021;SDS011;7086;48.116;11.580;2024-01-30T13:06:35;1.23;;;1.20;;
14021;SDS011;7086;48.116;11.580;2024-01-30T13:09:30;3.00;;;1.48;;
14021;SDS011;7086;48.116;11.580;2024-01-30T13:12:03;1.98;;;1.80;;
14021;SDS011;7086;48.116;11.580;2024-01-30T13:14:46;1.75;;;1.55;;
14021;SDS011;7086;48.116;11.580;2024-01-30T13:17:28;5.63;;;1.88;;
14021;SDS011;7086;48.116;11.580;2024-01-30T13:26:22;1.35;;;1.30;;
14021;SDS011;7086;48.116;11.580;2024-01-30T13:28:53;8.48;;;1.95;;
14021;SDS011;7086;48.116;11.580;2024-01-30T13:31:28;3.95;;;1.70;;
14021;SDS011;7086;48.116;11.580;2024-01-30T13:34:10;1.55;;;1.35;;
14021;SDS011;7086;48.116;11.580;2024-01-30T13:36:47;1.20;;;1.10;;
14021;SDS011;7086;48.116;11.580;2024-01-30T13:42:05;1.25;;;1.10;;
14021;SDS011;7086;48.116;11.580;2024-01-30T13:44:47;4.20;;;1.30;;
14021;SDS011;7086;48.116;11.580;2024-01-30T13:47:16;1.17;;;1.08;;
14021;SDS011;7086;48.116;11.580;2024-01-30T13:49:47;1.45;;;1.35;;
14021;SDS011;7086;48.116;11.580;2024-01-30T13:52:30;3.67;;;1.30;;
14021;SDS011;7086;48.116;11.580;2024-01-30T14:01:45;1.75;;;1.40;;
14021;SDS011;7086;48.116;11.580;2024-01-30T14:04:34;0.90;;;0.90;;
14021;SDS011;7086;48.116;11.580;2024-01-30T14:07:04;1.95;;;1.00;;
14021;SDS011;7086;48.116;11.580;2024-01-30T14:09:48;0.98;;;0.93;;
14021;SDS011;7086;48.116;11.580;2024-01-30T14:12:31;1.38;;;1.10;;
14021;SDS011;7086;48.116;11.580;2024-01-30T14:15:11;3.30;;;1.13;;
14021;SDS011;7086;48.116;11.580;2024-01-30T14:17:47;1.45;;;0.95;;
14021;SDS011;7086;48.116;11.580;2024-01-30T14:20:29;2.35;;;1.10;;
14021;SDS011;7086;48.116;11.580;2024-01-30T14:23:11;0.98;;;0.98;;
14021;SDS011;7086;48.116;11.580;2024-01-30T14:25:45;1.42;;;0.98;;
14021;SDS011;7086;48.116;11.580;2024-01-30T14:28:28;0.98;;;0.93;;
14021;SDS011;7086;48.116;11.580;2024-01-30T14:31:04;2.42;;;1.25;;
14021;SDS011;7086;48.116;11.580;2024-01-30T14:33:33;1.33;;;1.23;;
14021;SDS011;7086;48.116;11.580;2024-01-30T14:36:15;1.77;;;0.95;;
14021;SDS011;7086;48.116;11.580;2024-01-30T14:38:44;1.52;;;1.10;;
14021;SDS011;7086;48.116;11.580;2024-01-30T14:41:12;2.42;;;1.35;;
14021;SDS011;7086;48.116;11.580;2024-01-30T14:43:49;5.13;;;1.52;;
14021;SDS011;7086;48.116;11.580;2024-01-30T14:46:31;1.48;;;1.40;;
14021;SDS011;7086;48.116;11.580;2024-01-30T14:49:13;2.42;;;1.30;;
14021;SDS011;7086;48.116;11.580;2024-01-30T14:52:06;3.35;;;3.00;;
14021;SDS011;7086;48.116;11.580;2024-01-30T14:54:42;3.22;;;1.83;;
14021;SDS011;7086;48.116;11.580;2024-01-30T14:57:29;1.60;;;1.50;;
14021;SDS011;7086;48.116;11.580;2024-01-30T15:00:04;3.97;;;1.63;;
14021;SDS011;7086;48.116;11.580;2024-01-30T15:11:07;5.20;;;1.95;;
14021;SDS011;7086;48.116;11.580;2024-01-30T15:14:08;2.00;;;1.80;;
14021;SDS011;7086;48.116;11.580;2024-01-30T15:16:50;2.78;;;1.25;;
14021;SDS011;7086;48.116;11.580;2024-01-30T15:19:37;1.77;;;1.25;;
14021;SDS011;7086;48.116;11.580;2024-01-30T15:22:19;4.07;;;1.42;;
14021;SDS011;7086;48.116;11.580;2024-01-30T15:25:00;3.15;;;1.50;;
14021;SDS011;7086;48.116;11.580;2024-01-30T15:27:33;6.10;;;1.60;;
14021;SDS011;7086;48.116;11.580;2024-01-30T15:30:24;4.03;;;1.35;;
14021;SDS011;7086;48.116;11.580;2024-01-30T15:33:15;2.72;;;1.50;;
14021;SDS011;7086;48.116;11.580;2024-01-30T15:39:25;2.75;;;1.70;;
14021;SDS011;7086;48.116;11.580;2024-01-30T15:41:58;12.07;;;2.38;;
14021;SDS011;7086;48.116;11.580;2024-01-30T15:44:43;16.38;;;4.57;;
14021;SDS011;7086;48.116;11.580;2024-01-30T15:47:26;5.18;;;3.95;;
14021;SDS011;7086;48.116;11.580;2024-01-30T15:50:09;20.17;;;4.68;;
14021;SDS011;7086;48.116;11.580;2024-01-30T15:52:41;17.95;;;3.33;;
14021;SDS011;7086;48.116;11.580;2024-01-30T15:58:39;5.18;;;2.45;;
14021;SDS011;7086;48.116;11.580;2024-01-30T16:01:23;6.68;;;2.92;;
14021;SDS011;7086;48.116;11.580;2024-01-30T16:04:16;21.58;;;3.72;;
14021;SDS011;7086;48.116;11.580;2024-01-30T16:06:54;3.70;;;2.83;;
14021;SDS011;7086;48.116;11.580;2024-01-30T16:09:36;4.88;;;2.55;;
14021;SDS011;7086;48.116;11.580;2024-01-30T16:12:05;8.45;;;4.25;;
14021;SDS011;7086;48.116;11.580;2024-01-30T16:49:48;22.67;;;5.60;;
14021;SDS011;7086;48.116;11.580;2024-01-30T16:55:12;10.00;;;3.92;;
14021;SDS011;7086;48.116;11.580;2024-01-30T16:57:57;17.17;;;4.60;;
14021;SDS011;7086;48.116;11.580;2024-01-30T17:00:42;23.85;;;5.22;;
14021;SDS011;7086;48.116;11.580;2024-01-30T17:03:24;11.48;;;4.18;;
14021;SDS011;7086;48.116;11.580;2024-01-30T18:50:34;18.90;;;6.63;;
14021;SDS011;7086;48.116;11.580;2024-01-30T18:53:05;11.23;;;4.75;;
14021;SDS011;7086;48.116;11.580;2024-01-30T18:55:46;13.38;;;5.07;;
14021;SDS011;7086;48.116;11.580;2024-01-30T18:58:15;16.13;;;5.68;;
14021;SDS011;7086;48.116;11.580;2024-01-30T19:00:59;9.02;;;5.30;;
14021;SDS011;7086;48.116;11.580;2024-01-30T19:03:41;15.90;;;5.57;;
14021;SDS011;7086;48.116;11.580;2024-01-30T19:09:51;9.52;;;4.82;;
14021;SDS011;7086;48.116;11.580;2024-01-30T19:12:20;6.70;;;4.85;;
14021;SDS011;7086;48.116;11.580;2024-01-30T19:15:09;13.20;;;4.80;;
14021;SDS011;7086;48.116;11.580;2024-01-30T19:17:51;8.00;;;4.90;;
14021;SDS011;7086;48.116;11.580;2024-01-30T19:20:21;6.38;;;4.15;;
14021;SDS011;7086;48.116;11.580;2024-01-30T19:22:58;5.93;;;3.95;;
14021;SDS011;7086;48.116;11.580;2024-01-30T19:25:36;6.40;;;4.07;;
14021;SDS011;7086;48.116;11.580;2024-01-30T19:28:18;8.82;;;5.72;;
14021;SDS011;7086;48.116;11.580;2024-01-30T19:30:56;11.32;;;6.47;;
14021;SDS011;7086;48.116;11.580;2024-01-30T19:33:48;9.68;;;5.13;;
14021;SDS011;7086;48.116;11.580;2024-01-30T19:47:08;11.50;;;5.47;;
14021;SDS011;7086;48.116;11.580;2024-01-30T19:49:37;10.52;;;4.90;;
14021;SDS011;7086;48.116;11.580;2024-01-30T20:34:38;4.68;;;4.10;;